sensor_id;sensor_type;location;lat;lon;timestamp;pressure;altitude;pressure_sealevel;temperature;humidity
75788;BME280;64406;50.024;14.492;2022-10-26T00:02:09;98355.56;;;8.28;87.12
75788;BME280;64406;50.024;14.492;2022-10-26T00:04:34;98354.75;;;8.28;86.81
75788;BME280;64406;50.024;14.492;2022-10-26T00:07:00;98362.22;;;8.21;86.83
75788;BME280;64406;50.024;14.492;2022-10-26T00:09:26;98353.03;;;8.11;87.01
75788;BME280;64406;50.024;14.492;2022-10-26T00:11:51;98354.91;;;8.11;86.60
75788;BME280;64406;50.024;14.492;2022-10-26T00:14:18;98348.47;;;8.07;87.05
75788;BME280;64406;50.024;14.492;2022-10-26T00:16:43;98350.63;;;8.10;86.95
75788;BME280;64406;50.024;14.492;2022-10-26T00:19:09;98358.97;;;8.13;87.16
75788;BME280;64406;50.024;14.492;2022-10-26T00:21:34;98352.78;;;8.13;87.13
75788;BME280;64406;50.024;14.492;2022-10-26T00:24:00;98362.72;;;8.12;86.91
75788;BME280;64406;50.024;14.492;2022-10-26T00:26:25;98359.78;;;8.14;87.48
75788;BME280;64406;50.024;14.492;2022-10-26T00:28:52;98357.94;;;8.20;87.20
75788;BME280;64406;50.024;14.492;2022-10-26T00:31:18;98358.75;;;8.25;86.97
75788;BME280;64406;50.024;14.492;2022-10-26T00:33:44;98359.81;;;8.24;86.97
75788;BME280;64406;50.024;14.492;2022-10-26T00:36:10;98357.13;;;8.24;86.39
75788;BME280;64406;50.024;14.492;2022-10-26T00:38:38;98370.59;;;8.29;86.14
75788;BME280;64406;50.024;14.492;2022-10-26T00:41:14;98355.25;;;8.25;86.51
75788;BME280;64406;50.024;14.492;2022-10-26T00:43:40;98364.94;;;8.26;85.77
75788;BME280;64406;50.024;14.492;2022-10-26T00:46:12;98359.25;;;8.17;86.33
75788;BME280;64406;50.024;14.492;2022-10-26T00:48:43;98356.63;;;8.27;86.10
75788;BME280;64406;50.024;14.492;2022-10-26T00:51:32;98360.03;;;8.17;86.72
75788;BME280;64406;50.024;14.492;2022-10-26T00:54:02;98357.91;;;8.14;86.07
75788;BME280;64406;50.024;14.492;2022-10-26T00:56:29;98363.75;;;8.11;86.23
75788;BME280;64406;50.024;14.492;2022-10-26T00:59:00;98354.09;;;8.10;85.70
75788;BME280;64406;50.024;14.492;2022-10-26T01:01:27;98358.66;;;8.10;86.57
75788;BME280;64406;50.024;14.492;2022-10-26T01:03:54;98357.31;;;8.07;85.88
75788;BME280;64406;50.024;14.492;2022-10-26T01:06:20;98358.66;;;8.10;86.10
75788;BME280;64406;50.024;14.492;2022-10-26T01:08:47;98358.88;;;8.03;86.61
75788;BME280;64406;50.024;14.492;2022-10-26T01:11:12;98361.84;;;8.02;86.46
75788;BME280;64406;50.024;14.492;2022-10-26T01:13:39;98359.16;;;8.02;86.41
75788;BME280;64406;50.024;14.492;2022-10-26T01:16:21;98348.69;;;8.00;86.80
75788;BME280;64406;50.024;14.492;2022-10-26T01:27:19;98340.38;;;8.02;85.90
75788;BME280;64406;50.024;14.492;2022-10-26T01:30:07;98344.09;;;7.96;86.01
75788;BME280;64406;50.024;14.492;2022-10-26T01:32:39;98344.34;;;7.94;86.24
75788;BME280;64406;50.024;14.492;2022-10-26T01:35:26;98338.72;;;7.96;85.75
75788;BME280;64406;50.024;14.492;2022-10-26T01:37:58;98343.56;;;7.99;86.15
75788;BME280;64406;50.024;14.492;2022-10-26T01:40:34;98344.34;;;7.94;85.48
75788;BME280;64406;50.024;14.492;2022-10-26T01:43:04;98343.50;;;7.88;85.42
75788;BME280;64406;50.024;14.492;2022-10-26T01:45:32;98344.63;;;7.93;85.79
75788;BME280;64406;50.024;14.492;2022-10-26T01:47:59;98341.09;;;7.92;86.22
75788;BME280;64406;50.024;14.492;2022-10-26T01:50:27;98338.72;;;7.96;86.37
75788;BME280;64406;50.024;14.492;2022-10-26T01:52:53;98323.97;;;7.93;85.53
75788;BME280;64406;50.024;14.492;2022-10-26T01:55:52;98335.25;;;7.95;85.69
75788;BME280;64406;50.024;14.492;2022-10-26T01:58:40;98336.56;;;7.93;85.69
75788;BME280;64406;50.024;14.492;2022-10-26T02:01:33;98329.56;;;7.91;86.03
75788;BME280;64406;50.024;14.492;2022-10-26T02:07:12;98328.19;;;7.84;86.52
75788;BME280;64406;50.024;14.492;2022-10-26T02:09:58;98332.25;;;7.86;85.76
75788;BME280;64406;50.024;14.492;2022-10-26T02:12:30;98329.78;;;7.85;86.78
75788;BME280;64406;50.024;14.492;2022-10-26T02:15:33;98333.53;;;7.84;86.74
75788;BME280;64406;50.024;14.492;2022-10-26T02:20:39;98316.97;;;7.87;85.73
75788;BME280;64406;50.024;14.492;2022-10-26T02:23:07;98311.03;;;7.85;86.38
75788;BME280;64406;50.024;14.492;2022-10-26T02:25:40;98316.97;;;7.87;86.23
75788;BME280;64406;50.024;14.492;2022-10-26T02:28:12;98318.84;;;7.86;85.66
75788;BME280;64406;50.024;14.492;2022-10-26T02:30:39;98318.03;;;7.91;85.04
75788;BME280;64406;50.024;14.492;2022-10-26T02:33:09;98322.84;;;7.89;85.60
75788;BME280;64406;50.024;14.492;2022-10-26T02:35:40;98319.59;;;7.82;85.82
75788;BME280;64406;50.024;14.492;2022-10-26T02:38:09;98316.38;;;7.80;85.42
75788;BME280;64406;50.024;14.492;2022-10-26T02:40:36;98313.94;;;7.78;85.36
75788;BME280;64406;50.024;14.492;2022-10-26T02:43:07;98321.44;;;7.76;84.96
75788;BME280;64406;50.024;14.492;2022-10-26T02:45:42;98313.88;;;7.68;85.76
75788;BME280;64406;50.024;14.492;2022-10-26T02:48:09;98321.59;;;7.64;85.55
75788;BME280;64406;50.024;14.492;2022-10-26T02:50:57;98313.88;;;7.68;85.42
75788;BME280;64406;50.024;14.492;2022-10-26T02:56:10;98315.19;;;7.66;85.36
75788;BME280;64406;50.024;14.492;2022-10-26T02:58:44;98310.81;;;7.54;85.99
75788;BME280;64406;50.024;14.492;2022-10-26T03:01:12;98313.19;;;7.51;85.63
75788;BME280;64406;50.024;14.492;2022-10-26T03:03:38;98316.66;;;7.46;85.53
75788;BME280;64406;50.024;14.492;2022-10-26T03:06:03;98315.59;;;7.47;85.72
75788;BME280;64406;50.024;14.492;2022-10-26T03:08:29;98318.50;;;7.41;86.39
75788;BME280;64406;50.024;14.492;2022-10-26T03:10:54;98316.03;;;7.39;86.46
75788;BME280;64406;50.024;14.492;2022-10-26T03:13:20;98303.47;;;7.40;86.53
75788;BME280;64406;50.024;14.492;2022-10-26T03:15:46;98309.88;;;7.39;86.04
75788;BME280;64406;50.024;14.492;2022-10-26T03:18:11;98312.91;;;7.47;86.11
75788;BME280;64406;50.024;14.492;2022-10-26T03:20:37;98302.69;;;7.44;86.09
75788;BME280;64406;50.024;14.492;2022-10-26T03:23:02;98308.31;;;7.43;85.84
75788;BME280;64406;50.024;14.492;2022-10-26T03:25:28;98311.03;;;7.48;86.33
75788;BME280;64406;50.024;14.492;2022-10-26T03:28:01;98311.59;;;7.50;85.40
75788;BME280;64406;50.024;14.492;2022-10-26T03:30:28;98312.88;;;7.42;85.33
75788;BME280;64406;50.024;14.492;2022-10-26T03:32:54;98309.66;;;7.40;85.57
75788;BME280;64406;50.024;14.492;2022-10-26T03:35:19;98310.44;;;7.41;85.83
75788;BME280;64406;50.024;14.492;2022-10-26T03:37:45;98306.41;;;7.38;85.95
75788;BME280;64406;50.024;14.492;2022-10-26T03:40:11;98307.47;;;7.37;85.93
75788;BME280;64406;50.024;14.492;2022-10-26T03:42:38;98312.53;;;7.33;85.14
75788;BME280;64406;50.024;14.492;2022-10-26T03:45:04;98323.41;;;7.22;85.56
75788;BME280;64406;50.024;14.492;2022-10-26T03:47:30;98319.16;;;7.26;86.11
75788;BME280;64406;50.024;14.492;2022-10-26T03:49:55;98326.09;;;7.22;86.12
75788;BME280;64406;50.024;14.492;2022-10-26T03:52:21;98310.78;;;7.17;85.74
75788;BME280;64406;50.024;14.492;2022-10-26T03:54:48;98321.75;;;7.16;85.72
75788;BME280;64406;50.024;14.492;2022-10-26T03:57:14;98323.63;;;7.15;86.15
75788;BME280;64406;50.024;14.492;2022-10-26T03:59:39;98324.38;;;7.11;85.95
75788;BME280;64406;50.024;14.492;2022-10-26T04:02:05;98321.97;;;7.09;85.73
75788;BME280;64406;50.024;14.492;2022-10-26T04:04:31;98319.75;;;7.01;85.69
75788;BME280;64406;50.024;14.492;2022-10-26T04:06:56;98326.16;;;7.00;85.60
75788;BME280;64406;50.024;14.492;2022-10-26T04:09:22;98324.53;;;6.99;85.79
75788;BME280;64406;50.024;14.492;2022-10-26T04:11:48;98327.72;;;6.96;86.98
75788;BME280;64406;50.024;14.492;2022-10-26T04:14:13;98327.47;;;6.97;85.94
75788;BME280;64406;50.024;14.492;2022-10-26T04:16:38;98335.28;;;7.04;85.89
75788;BME280;64406;50.024;14.492;2022-10-26T04:19:04;98332.00;;;6.97;86.17
75788;BME280;64406;50.024;14.492;2022-10-26T04:21:30;98341.66;;;6.98;86.41
75788;BME280;64406;50.024;14.492;2022-10-26T04:23:57;98345.09;;;6.93;86.52
75788;BME280;64406;50.024;14.492;2022-10-26T04:26:23;98349.81;;;6.86;86.84
75788;BME280;64406;50.024;14.492;2022-10-26T04:28:48;98349.09;;;6.91;86.66
75788;BME280;64406;50.024;14.492;2022-10-26T04:31:14;98353.63;;;6.90;86.39
75788;BME280;64406;50.024;14.492;2022-10-26T04:33:39;98337.31;;;6.92;85.63
75788;BME280;64406;50.024;14.492;2022-10-26T04:36:05;98339.38;;;6.85;86.28
75788;BME280;64406;50.024;14.492;2022-10-26T04:38:31;98341.78;;;6.86;85.76
75788;BME280;64406;50.024;14.492;2022-10-26T04:40:56;98348.16;;;6.80;86.58
75788;BME280;64406;50.024;14.492;2022-10-26T04:43:22;98347.06;;;6.76;85.83
75788;BME280;64406;50.024;14.492;2022-10-26T04:45:47;98341.97;;;6.74;85.84
75788;BME280;64406;50.024;14.492;2022-10-26T04:48:13;98351.91;;;6.79;86.09
75788;BME280;64406;50.024;14.492;2022-10-26T04:50:39;98353.50;;;6.80;86.66
75788;BME280;64406;50.024;14.492;2022-10-26T04:53:06;98353.56;;;6.85;86.52
75788;BME280;64406;50.024;14.492;2022-10-26T04:55:32;98352.69;;;6.79;86.47
75788;BME280;64406;50.024;14.492;2022-10-26T04:57:58;98354.53;;;6.74;86.86
75788;BME280;64406;50.024;14.492;2022-10-26T05:00:23;98341.97;;;6.74;86.59
75788;BME280;64406;50.024;14.492;2022-10-26T05:02:49;98343.06;;;6.78;86.54
75788;BME280;64406;50.024;14.492;2022-10-26T05:05:15;98353.22;;;6.76;87.17
75788;BME280;64406;50.024;14.492;2022-10-26T05:07:40;98348.41;;;6.78;86.57
75788;BME280;64406;50.024;14.492;2022-10-26T05:10:06;98355.63;;;6.78;86.46
75788;BME280;64406;50.024;14.492;2022-10-26T05:12:32;98350.59;;;6.81;86.66
75788;BME280;64406;50.024;14.492;2022-10-26T05:14:58;98347.34;;;6.79;87.49
75788;BME280;64406;50.024;14.492;2022-10-26T05:17:24;98349.00;;;6.80;87.48
75788;BME280;64406;50.024;14.492;2022-10-26T05:19:50;98339.09;;;6.81;87.26
75788;BME280;64406;50.024;14.492;2022-10-26T05:22:26;98345.06;;;6.88;86.97
75788;BME280;64406;50.024;14.492;2022-10-26T05:24:51;98341.38;;;6.94;87.00
75788;BME280;64406;50.024;14.492;2022-10-26T05:27:17;98341.38;;;6.94;87.72
75788;BME280;64406;50.024;14.492;2022-10-26T05:29:42;98349.16;;;6.96;87.07
75788;BME280;64406;50.024;14.492;2022-10-26T05:32:08;98348.75;;;7.09;86.98
75788;BME280;64406;50.024;14.492;2022-10-26T05:34:33;98349.59;;;7.15;86.69
75788;BME280;64406;50.024;14.492;2022-10-26T05:36:59;98354.66;;;7.11;86.62
75788;BME280;64406;50.024;14.492;2022-10-26T05:39:24;98343.66;;;7.13;86.85
75788;BME280;64406;50.024;14.492;2022-10-26T05:41:50;98351.22;;;7.16;86.54
75788;BME280;64406;50.024;14.492;2022-10-26T05:44:15;98350.66;;;7.14;86.41
75788;BME280;64406;50.024;14.492;2022-10-26T05:46:41;98347.78;;;7.20;86.42
75788;BME280;64406;50.024;14.492;2022-10-26T05:49:07;98351.28;;;7.21;86.48
75788;BME280;64406;50.024;14.492;2022-10-26T05:51:32;98356.31;;;7.17;86.32
75788;BME280;64406;50.024;14.492;2022-10-26T05:53:58;98362.75;;;7.16;86.60
75788;BME280;64406;50.024;14.492;2022-10-26T05:56:36;98367.69;;;7.29;86.71
75788;BME280;64406;50.024;14.492;2022-10-26T05:59:05;98363.69;;;7.32;85.74
75788;BME280;64406;50.024;14.492;2022-10-26T06:01:51;98375.72;;;7.29;86.72
75788;BME280;64406;50.024;14.492;2022-10-26T06:04:40;98371.22;;;7.35;86.13
75788;BME280;64406;50.024;14.492;2022-10-26T06:07:10;98379.56;;;7.39;86.67
75788;BME280;64406;50.024;14.492;2022-10-26T06:09:37;98375.41;;;7.53;85.67
75788;BME280;64406;50.024;14.492;2022-10-26T06:12:03;98371.16;;;7.57;86.14
75788;BME280;64406;50.024;14.492;2022-10-26T06:14:29;98378.16;;;7.63;85.41
75788;BME280;64406;50.024;14.492;2022-10-26T06:20:16;98379.28;;;7.67;85.29
75788;BME280;64406;50.024;14.492;2022-10-26T06:31:06;98392.75;;;7.77;84.67
75788;BME280;64406;50.024;14.492;2022-10-26T06:33:31;98387.66;;;7.76;85.02
75788;BME280;64406;50.024;14.492;2022-10-26T06:38:32;98385.56;;;7.83;84.53
75788;BME280;64406;50.024;14.492;2022-10-26T06:40:58;98397.41;;;7.87;84.61
75788;BME280;64406;50.024;14.492;2022-10-26T06:43:26;98395.00;;;7.90;84.48
75788;BME280;64406;50.024;14.492;2022-10-26T06:46:21;98391.59;;;8.00;84.69
75788;BME280;64406;50.024;14.492;2022-10-26T06:49:21;98396.53;;;8.13;83.79
75788;BME280;64406;50.024;14.492;2022-10-26T06:51:56;98386.91;;;8.23;83.48
75788;BME280;64406;50.024;14.492;2022-10-26T06:57:01;98390.47;;;8.33;83.18
75788;BME280;64406;50.024;14.492;2022-10-26T07:01:57;98393.75;;;8.40;83.24
75788;BME280;64406;50.024;14.492;2022-10-26T07:04:23;98390.63;;;8.54;82.94
75788;BME280;64406;50.024;14.492;2022-10-26T07:06:48;98398.16;;;8.62;82.90
75788;BME280;64406;50.024;14.492;2022-10-26T07:09:14;98399.03;;;8.78;82.41
75788;BME280;64406;50.024;14.492;2022-10-26T07:11:39;98396.66;;;8.86;81.80
75788;BME280;64406;50.024;14.492;2022-10-26T07:14:05;98396.09;;;8.84;82.75
75788;BME280;64406;50.024;14.492;2022-10-26T07:16:30;98408.78;;;8.94;81.99
75788;BME280;64406;50.024;14.492;2022-10-26T07:18:56;98396.69;;;8.91;82.16
75788;BME280;64406;50.024;14.492;2022-10-26T07:21:21;98404.47;;;8.93;81.92
75788;BME280;64406;50.024;14.492;2022-10-26T07:23:47;98403.69;;;9.03;81.33
75788;BME280;64406;50.024;14.492;2022-10-26T07:26:12;98409.06;;;9.03;81.82
75788;BME280;64406;50.024;14.492;2022-10-26T07:28:38;98413.38;;;9.09;81.77
75788;BME280;64406;50.024;14.492;2022-10-26T07:31:04;98416.09;;;9.24;81.51
75788;BME280;64406;50.024;14.492;2022-10-26T07:33:29;98412.09;;;9.26;81.68
75788;BME280;64406;50.024;14.492;2022-10-26T07:35:57;98417.75;;;9.30;81.47
75788;BME280;64406;50.024;14.492;2022-10-26T07:38:23;98419.91;;;9.43;81.54
75788;BME280;64406;50.024;14.492;2022-10-26T07:40:49;98420.22;;;9.47;81.63
75788;BME280;64406;50.024;14.492;2022-10-26T07:43:14;98417.25;;;9.48;81.78
75788;BME280;64406;50.024;14.492;2022-10-26T07:45:40;98424.53;;;9.58;81.35
75788;BME280;64406;50.024;14.492;2022-10-26T07:48:06;98423.72;;;9.68;81.46
75788;BME280;64406;50.024;14.492;2022-10-26T07:50:32;98421.59;;;9.65;81.21
75788;BME280;64406;50.024;14.492;2022-10-26T07:52:58;98428.03;;;9.69;80.87
75788;BME280;64406;50.024;14.492;2022-10-26T07:55:24;98426.16;;;9.85;80.60
75788;BME280;64406;50.024;14.492;2022-10-26T07:57:49;98431.53;;;9.90;80.08
75788;BME280;64406;50.024;14.492;2022-10-26T08:00:15;98428.84;;;9.95;80.55
75788;BME280;64406;50.024;14.492;2022-10-26T08:02:40;98435.06;;;10.11;80.33
75788;BME280;64406;50.024;14.492;2022-10-26T08:05:07;98436.09;;;10.09;80.40
75788;BME280;64406;50.024;14.492;2022-10-26T08:07:32;98444.72;;;10.06;80.27
75788;BME280;64406;50.024;14.492;2022-10-26T08:09:58;98437.19;;;10.19;79.89
75788;BME280;64406;50.024;14.492;2022-10-26T08:12:23;98444.22;;;10.25;79.87
75788;BME280;64406;50.024;14.492;2022-10-26T08:14:49;98443.09;;;10.21;79.20
75788;BME280;64406;50.024;14.492;2022-10-26T08:17:14;98445.31;;;10.24;78.77
75788;BME280;64406;50.024;14.492;2022-10-26T08:19:40;98442.06;;;10.27;79.35
75788;BME280;64406;50.024;14.492;2022-10-26T08:22:05;98444.47;;;10.23;79.08
75788;BME280;64406;50.024;14.492;2022-10-26T08:24:31;98450.66;;;10.34;78.62
75788;BME280;64406;50.024;14.492;2022-10-26T08:26:56;98452.28;;;10.40;79.01
75788;BME280;64406;50.024;14.492;2022-10-26T08:29:22;98454.97;;;10.40;78.85
75788;BME280;64406;50.024;14.492;2022-10-26T08:31:47;98455.47;;;10.42;78.84
75788;BME280;64406;50.024;14.492;2022-10-26T08:34:13;98455.47;;;10.52;78.68
75788;BME280;64406;50.024;14.492;2022-10-26T08:36:39;98464.09;;;10.65;78.59
75788;BME280;64406;50.024;14.492;2022-10-26T08:39:05;98457.84;;;10.69;77.74
75788;BME280;64406;50.024;14.492;2022-10-26T08:41:40;98460.25;;;10.76;77.69
75788;BME280;64406;50.024;14.492;2022-10-26T08:44:27;98459.75;;;10.74;77.79
75788;BME280;64406;50.024;14.492;2022-10-26T08:46:57;98447.59;;;10.81;77.37
75788;BME280;64406;50.024;14.492;2022-10-26T08:49:38;98458.34;;;10.86;77.05
75788;BME280;64406;50.024;14.492;2022-10-26T08:52:09;98459.13;;;10.97;77.37
75788;BME280;64406;50.024;14.492;2022-10-26T08:54:42;98451.53;;;11.09;76.68
75788;BME280;64406;50.024;14.492;2022-10-26T08:57:15;98458.25;;;11.12;76.12
75788;BME280;64406;50.024;14.492;2022-10-26T08:59:52;98449.38;;;11.11;77.16
75788;BME280;64406;50.024;14.492;2022-10-26T09:02:20;98452.81;;;11.22;76.68
75788;BME280;64406;50.024;14.492;2022-10-26T09:04:46;98458.75;;;11.24;76.88
75788;BME280;64406;50.024;14.492;2022-10-26T09:07:21;98454.09;;;11.35;75.51
75788;BME280;64406;50.024;14.492;2022-10-26T09:21:01;98458.56;;;11.55;74.26
75788;BME280;64406;50.024;14.492;2022-10-26T09:26:12;98455.13;;;11.49;74.20
75788;BME280;64406;50.024;14.492;2022-10-26T09:28:40;98467.72;;;11.59;73.73
75788;BME280;64406;50.024;14.492;2022-10-26T09:31:12;98463.44;;;11.58;73.73
75788;BME280;64406;50.024;14.492;2022-10-26T09:33:39;98477.13;;;11.66;73.65
75788;BME280;64406;50.024;14.492;2022-10-26T09:36:07;98479.81;;;11.66;73.91
75788;BME280;64406;50.024;14.492;2022-10-26T09:38:40;98476.00;;;11.73;73.95
75788;BME280;64406;50.024;14.492;2022-10-26T09:41:28;98481.66;;;11.81;75.07
75788;BME280;64406;50.024;14.492;2022-10-26T09:44:06;98487.75;;;11.97;74.32
75788;BME280;64406;50.024;14.492;2022-10-26T09:46:54;98489.03;;;12.10;74.27
75788;BME280;64406;50.024;14.492;2022-10-26T09:49:25;98487.63;;;12.12;73.88
75788;BME280;64406;50.024;14.492;2022-10-26T09:51:55;98480.56;;;12.21;73.97
75788;BME280;64406;50.024;14.492;2022-10-26T09:54:21;98490.31;;;12.17;73.93
75788;BME280;64406;50.024;14.492;2022-10-26T09:56:51;98491.88;;;12.23;73.16
75788;BME280;64406;50.024;14.492;2022-10-26T09:59:20;98482.59;;;12.35;73.21
75788;BME280;64406;50.024;14.492;2022-10-26T10:01:46;98477.91;;;12.45;72.67
75788;BME280;64406;50.024;14.492;2022-10-26T10:06:42;98475.44;;;12.49;71.89
75788;BME280;64406;50.024;14.492;2022-10-26T10:09:11;98478.81;;;12.36;71.71
75788;BME280;64406;50.024;14.492;2022-10-26T10:14:08;98474.44;;;12.40;72.50
75788;BME280;64406;50.024;14.492;2022-10-26T10:16:38;98476.00;;;12.46;73.58
75788;BME280;64406;50.024;14.492;2022-10-26T10:19:04;98479.97;;;12.53;74.07
75788;BME280;64406;50.024;14.492;2022-10-26T10:21:36;98470.94;;;12.68;73.54
75788;BME280;64406;50.024;14.492;2022-10-26T10:24:21;98474.44;;;12.69;72.60
75788;BME280;64406;50.024;14.492;2022-10-26T10:29:24;98480.75;;;12.59;71.92
75788;BME280;64406;50.024;14.492;2022-10-26T10:32:00;98470.97;;;12.63;71.82
75788;BME280;64406;50.024;14.492;2022-10-26T10:34:31;98475.03;;;12.61;71.90
75788;BME280;64406;50.024;14.492;2022-10-26T10:36:58;98482.00;;;12.67;71.84
75788;BME280;64406;50.024;14.492;2022-10-26T10:39:32;98466.84;;;12.71;71.62
75788;BME280;64406;50.024;14.492;2022-10-26T10:41:58;98476.94;;;12.89;72.63
75788;BME280;64406;50.024;14.492;2022-10-26T10:44:29;98466.28;;;12.98;72.25
75788;BME280;64406;50.024;14.492;2022-10-26T10:47:01;98465.19;;;12.99;72.18
75788;BME280;64406;50.024;14.492;2022-10-26T10:49:28;98463.28;;;12.99;72.12
75788;BME280;64406;50.024;14.492;2022-10-26T10:51:55;98466.56;;;12.96;72.69
75788;BME280;64406;50.024;14.492;2022-10-26T10:57:03;98453.25;;;13.00;73.03
75788;BME280;64406;50.024;14.492;2022-10-26T11:05:34;98434.09;;;13.20;71.82
75788;BME280;64406;50.024;14.492;2022-10-26T11:10:33;98447.97;;;13.14;71.89
75788;BME280;64406;50.024;14.492;2022-10-26T11:13:08;98456.91;;;13.14;71.80
75788;BME280;64406;50.024;14.492;2022-10-26T11:15:36;98455.75;;;13.20;72.13
75788;BME280;64406;50.024;14.492;2022-10-26T11:18:14;98459.44;;;13.29;71.15
75788;BME280;64406;50.024;14.492;2022-10-26T11:20:48;98455.28;;;13.37;71.06
75788;BME280;64406;50.024;14.492;2022-10-26T11:23:27;98463.81;;;13.25;71.32
75788;BME280;64406;50.024;14.492;2022-10-26T11:26:00;98466.00;;;13.23;71.61
75788;BME280;64406;50.024;14.492;2022-10-26T11:28:52;98460.88;;;13.22;71.09
75788;BME280;64406;50.024;14.492;2022-10-26T11:31:24;98464.13;;;13.19;72.01
75788;BME280;64406;50.024;14.492;2022-10-26T11:34:00;98471.28;;;13.10;72.25
75788;BME280;64406;50.024;14.492;2022-10-26T11:36:28;98469.38;;;13.10;71.64
75788;BME280;64406;50.024;14.492;2022-10-26T11:39:03;98476.34;;;13.16;71.62
75788;BME280;64406;50.024;14.492;2022-10-26T11:41:46;98473.69;;;13.11;71.23
75788;BME280;64406;50.024;14.492;2022-10-26T11:44:38;98467.47;;;13.11;71.21
75788;BME280;64406;50.024;14.492;2022-10-26T11:47:27;98471.00;;;13.11;71.90
75788;BME280;64406;50.024;14.492;2022-10-26T11:50:08;98469.88;;;13.12;71.25
75788;BME280;64406;50.024;14.492;2022-10-26T11:52:48;98472.94;;;13.05;71.64
75788;BME280;64406;50.024;14.492;2022-10-26T11:55:17;98469.22;;;13.01;70.47
75788;BME280;64406;50.024;14.492;2022-10-26T11:57:44;98475.34;;;13.07;71.11
75788;BME280;64406;50.024;14.492;2022-10-26T12:00:16;98473.81;;;13.01;70.79
75788;BME280;64406;50.024;14.492;2022-10-26T12:03:29;98470.88;;;12.97;70.96
75788;BME280;64406;50.024;14.492;2022-10-26T12:08:07;98478.59;;;13.09;70.55
75788;BME280;64406;50.024;14.492;2022-10-26T12:10:39;98476.75;;;13.04;71.01
75788;BME280;64406;50.024;14.492;2022-10-26T12:13:25;98472.88;;;13.11;70.80
75788;BME280;64406;50.024;14.492;2022-10-26T12:18:43;98472.38;;;13.09;70.35
75788;BME280;64406;50.024;14.492;2022-10-26T12:21:11;98467.47;;;13.11;70.36
75788;BME280;64406;50.024;14.492;2022-10-26T12:23:59;98475.91;;;13.09;70.83
75788;BME280;64406;50.024;14.492;2022-10-26T12:26:37;98471.59;;;13.08;70.98
75788;BME280;64406;50.024;14.492;2022-10-26T12:33:58;98482.59;;;13.12;71.39
75788;BME280;64406;50.024;14.492;2022-10-26T12:39:30;98478.38;;;13.29;70.84
75788;BME280;64406;50.024;14.492;2022-10-26T12:53:09;98477.59;;;13.48;71.02
75788;BME280;64406;50.024;14.492;2022-10-26T13:03:31;98473.63;;;13.59;69.29
75788;BME280;64406;50.024;14.492;2022-10-26T13:08:54;98475.38;;;13.31;68.44
75788;BME280;64406;50.024;14.492;2022-10-26T13:11:34;98477.56;;;13.29;69.33
75788;BME280;64406;50.024;14.492;2022-10-26T13:14:13;98464.41;;;13.22;69.66
75788;BME280;64406;50.024;14.492;2022-10-26T13:16:44;98464.84;;;13.29;69.71
75788;BME280;64406;50.024;14.492;2022-10-26T13:19:30;98466.00;;;13.23;70.15
75788;BME280;64406;50.024;14.492;2022-10-26T13:21:58;98458.94;;;13.27;70.47
75788;BME280;64406;50.024;14.492;2022-10-26T13:24:29;98453.28;;;13.24;70.76
75788;BME280;64406;50.024;14.492;2022-10-26T13:29:31;98457.75;;;13.33;71.44
75788;BME280;64406;50.024;14.492;2022-10-26T13:31:57;98455.34;;;13.32;71.71
75788;BME280;64406;50.024;14.492;2022-10-26T13:34:27;98459.59;;;13.38;71.58
75788;BME280;64406;50.024;14.492;2022-10-26T13:37:10;98467.69;;;13.38;72.17
75788;BME280;64406;50.024;14.492;2022-10-26T13:39:40;98471.81;;;13.36;72.24
75788;BME280;64406;50.024;14.492;2022-10-26T13:42:13;98467.19;;;13.36;71.90
75788;BME280;64406;50.024;14.492;2022-10-26T13:50:07;98471.84;;;13.54;71.16
75788;BME280;64406;50.024;14.492;2022-10-26T13:52:40;98472.53;;;13.60;70.57
75788;BME280;64406;50.024;14.492;2022-10-26T13:55:12;98476.72;;;13.52;70.79
75788;BME280;64406;50.024;14.492;2022-10-26T13:58:20;98481.97;;;13.44;71.03
75788;BME280;64406;50.024;14.492;2022-10-26T14:03:35;98479.97;;;13.30;71.51
75788;BME280;64406;50.024;14.492;2022-10-26T14:06:34;98484.09;;;13.47;71.63
75788;BME280;64406;50.024;14.492;2022-10-26T14:09:04;98490.34;;;13.47;71.45
75788;BME280;64406;50.024;14.492;2022-10-26T14:11:41;98481.13;;;13.48;71.71
75788;BME280;64406;50.024;14.492;2022-10-26T14:14:21;98490.59;;;13.46;71.35
75788;BME280;64406;50.024;14.492;2022-10-26T14:16:50;98482.41;;;13.51;71.00
75788;BME280;64406;50.024;14.492;2022-10-26T14:19:33;98486.44;;;13.35;71.71
75788;BME280;64406;50.024;14.492;2022-10-26T14:22:00;98490.00;;;13.30;70.99
75788;BME280;64406;50.024;14.492;2022-10-26T14:24:31;98491.44;;;13.22;70.83
75788;BME280;64406;50.024;14.492;2022-10-26T14:26:58;98493.34;;;13.22;70.77
75788;BME280;64406;50.024;14.492;2022-10-26T14:29:26;98484.66;;;13.20;70.64
75788;BME280;64406;50.024;14.492;2022-10-26T14:31:52;98485.50;;;13.20;70.73
75788;BME280;64406;50.024;14.492;2022-10-26T14:34:20;98504.50;;;13.15;71.08
75788;BME280;64406;50.024;14.492;2022-10-26T14:36:49;98501.84;;;13.10;71.55
75788;BME280;64406;50.024;14.492;2022-10-26T14:39:48;98503.91;;;13.18;71.08
75788;BME280;64406;50.024;14.492;2022-10-26T14:42:29;98509.44;;;13.08;71.64
75788;BME280;64406;50.024;14.492;2022-10-26T14:44:56;98516.47;;;13.09;72.11
75788;BME280;64406;50.024;14.492;2022-10-26T14:47:26;98515.19;;;13.01;72.79
75788;BME280;64406;50.024;14.492;2022-10-26T14:49:52;98518.75;;;12.97;72.55
75788;BME280;64406;50.024;14.492;2022-10-26T14:52:22;98527.72;;;12.92;72.50
75788;BME280;64406;50.024;14.492;2022-10-26T14:55:12;98524.47;;;12.95;71.91
75788;BME280;64406;50.024;14.492;2022-10-26T14:57:40;98523.41;;;12.91;71.92
75788;BME280;64406;50.024;14.492;2022-10-26T15:00:15;98525.13;;;12.82;72.92
75788;BME280;64406;50.024;14.492;2022-10-26T15:02:42;98524.84;;;12.84;72.74
75788;BME280;64406;50.024;14.492;2022-10-26T15:07:49;98529.16;;;12.85;73.04
75788;BME280;64406;50.024;14.492;2022-10-26T15:13:27;98537.16;;;12.66;74.04